Time;durP1;ratioP1;P1;durP2;ratioP2;P2;SDS_P1;SDS_P2;PMS_P1;PMS_P2;Temp;Humidity;BMP_temperature;BMP_pressure;BME280_temperature;BME280_humidity;BME280_pressure;Samples;Min_cycle;Max_cycle;Signal;HPM_P1;HPM_P2
2023/07/19 00:01:17;;;;;;;5.97;4.45;;;;;;;18.12;100.00;101322.94;5047242;28;20090;-73
2023/07/19 00:03:51;;;;;;;7.90;5.53;;;;;;;18.12;100.00;101320.22;5047104;28;20470;-74
2023/07/19 00:06:17;;;;;;;6.70;5.03;;;;;;;18.04;100.00;101317.38;5047763;28;20112;-74
2023/07/19 00:08:45;;;;;;;6.03;4.82;;;;;;;18.13;100.00;101321.13;5048073;28;20037;-74
2023/07/19 00:11:20;;;;;;;8.40;5.40;;;;;;;18.18;100.00;101319.72;5048262;28;20045;-75
2023/07/19 00:13:45;;;;;;;9.30;5.75;;;;;;;18.28;100.00;101314.38;5050670;28;20033;-74
2023/07/19 00:16:15;;;;;;;7.65;5.78;;;;;;;18.22;100.00;101320.28;5051045;28;20036;-74
2023/07/19 00:18:44;;;;;;;10.27;5.80;;;;;;;18.24;100.00;101327.28;5046317;28;20112;-74
2023/07/19 00:21:11;;;;;;;8.20;6.57;;;;;;;18.27;100.00;101329.72;5051853;28;20118;-74
2023/07/19 00:23:38;;;;;;;7.78;5.57;;;;;;;18.28;100.00;101326.00;5050271;28;20048;-74
2023/07/19 00:26:04;;;;;;;9.60;6.18;;;;;;;18.22;100.00;101326.53;5049675;28;20064;-73
2023/07/19 00:28:32;;;;;;;9.07;5.75;;;;;;;18.13;100.00;101321.97;5048399;28;20033;-74
2023/07/19 00:31:03;;;;;;;12.60;7.00;;;;;;;18.21;100.00;101313.19;5045804;28;20148;-73
2023/07/19 00:33:30;;;;;;;7.95;6.63;;;;;;;18.31;100.00;101300.56;5045049;28;20033;-74
2023/07/19 00:35:56;;;;;;;8.70;5.82;;;;;;;18.32;100.00;101308.56;5049801;28;20091;-73
2023/07/19 00:38:21;;;;;;;9.68;6.95;;;;;;;18.28;100.00;101308.97;5024921;28;20053;-75
2023/07/19 00:40:50;;;;;;;8.80;6.55;;;;;;;18.31;100.00;101309.53;5075090;28;20061;-74
2023/07/19 00:43:16;;;;;;;11.23;6.57;;;;;;;18.32;100.00;101303.16;5081269;27;20037;-73
2023/07/19 00:45:53;;;;;;;9.07;6.00;;;;;;;18.34;100.00;101292.22;5049747;28;20308;-75
2023/07/19 00:48:19;;;;;;;10.32;5.85;;;;;;;18.26;100.00;101295.56;5042530;28;20048;-74
2023/07/19 00:50:48;;;;;;;10.15;6.70;;;;;;;18.25;100.00;101295.72;5048586;28;20157;-74
2023/07/19 00:53:18;;;;;;;7.53;5.47;;;;;;;18.10;100.00;101300.63;5044074;28;20159;-74
2023/07/19 00:55:49;;;;;;;11.30;6.85;;;;;;;17.97;100.00;101297.28;5049383;28;20043;-73
2023/07/19 00:58:18;;;;;;;11.90;6.15;;;;;;;18.00;100.00;101294.31;5043717;28;20127;-73
2023/07/19 01:00:46;;;;;;;9.07;5.47;;;;;;;18.06;100.00;101294.63;5048919;28;20060;-74
2023/07/19 01:03:15;;;;;;;7.03;5.43;;;;;;;18.07;100.00;101292.78;5058273;28;20047;-74
2023/07/19 01:05:44;;;;;;;10.40;6.30;;;;;;;17.50;100.00;101294.13;5049038;28;20033;-73
2023/07/19 01:08:17;;;;;;;11.85;6.60;;;;;;;17.72;100.00;101277.81;5044737;28;20043;-72
2023/07/19 01:10:43;;;;;;;12.90;6.45;;;;;;;17.77;100.00;101280.13;5048630;28;20557;-73
2023/07/19 01:13:14;;;;;;;11.70;5.72;;;;;;;17.90;100.00;101277.22;5045643;28;20081;-73
2023/07/19 01:15:46;;;;;;;11.73;5.88;;;;;;;17.95;100.00;101269.59;5048515;28;20136;-74
2023/07/19 01:18:19;;;;;;;9.63;6.13;;;;;;;17.97;100.00;101264.91;5047814;28;20041;-74
2023/07/19 01:20:44;;;;;;;8.85;5.30;;;;;;;17.90;100.00;101264.59;5046517;28;20431;-74
2023/07/19 01:23:15;;;;;;;6.50;4.75;;;;;;;17.77;100.00;101266.63;5047120;28;20145;-74
2023/07/19 01:25:45;;;;;;;9.63;5.65;;;;;;;17.55;100.00;101257.69;5041111;28;20040;-73
2023/07/19 01:28:15;;;;;;;8.27;4.88;;;;;;;17.53;100.00;101256.97;5047486;28;20029;-73
2023/07/19 01:30:45;;;;;;;10.38;5.28;;;;;;;17.65;100.00;101256.91;5048839;28;20037;-73
2023/07/19 01:33:15;;;;;;;8.18;4.95;;;;;;;17.59;100.00;101258.28;5046581;28;20040;-74
2023/07/19 01:35:45;;;;;;;10.43;5.95;;;;;;;17.59;100.00;101247.50;5043746;28;20093;-74
2023/07/19 01:38:15;;;;;;;9.32;5.90;;;;;;;17.60;100.00;101252.75;5045991;28;20064;-73
2023/07/19 01:40:43;;;;;;;6.95;5.30;;;;;;;17.55;100.00;101238.81;5047933;28;20037;-73
2023/07/19 01:43:09;;;;;;;8.38;6.18;;;;;;;17.42;100.00;101243.56;5048665;28;20866;-73
2023/07/19 01:45:44;;;;;;;10.13;6.30;;;;;;;17.56;100.00;101239.66;5044717;28;20037;-74
2023/07/19 01:48:15;;;;;;;8.68;5.28;;;;;;;17.52;100.00;101247.19;5044846;28;20048;-73
2023/07/19 01:50:47;;;;;;;;;;;;;;;17.55;100.00;101238.81;5046493;28;20044;-73
2023/07/19 01:53:15;;;;;;;5.97;4.90;;;;;;;17.47;100.00;101248.53;5045540;28;19924;-73
2023/07/19 01:55:43;;;;;;;8.55;4.95;;;;;;;17.41;100.00;101246.38;5047888;28;20049;-73
2023/07/19 01:58:15;;;;;;;8.35;6.00;;;;;;;17.30;100.00;101250.00;5047303;28;20132;-73
2023/07/19 02:00:45;;;;;;;9.27;6.20;;;;;;;17.19;100.00;101252.75;5079069;27;20041;-72
2023/07/19 02:03:14;;;;;;;6.18;5.05;;;;;;;17.20;100.00;101246.38;5046240;28;20151;-73
2023/07/19 02:05:45;;;;;;;7.82;5.38;;;;;;;17.16;100.00;101250.31;5048104;28;20041;-73
2023/07/19 02:08:17;;;;;;;8.55;5.45;;;;;;;17.11;100.00;101245.31;5041979;28;20041;-73
2023/07/19 02:10:45;;;;;;;8.73;5.70;;;;;;;17.07;100.00;101242.03;5046878;28;20044;-73
2023/07/19 02:13:13;;;;;;;10.25;5.50;;;;;;;17.04;100.00;101253.06;5048048;28;20041;-73
2023/07/19 02:15:46;;;;;;;10.85;5.88;;;;;;;17.08;100.00;101243.72;5079897;28;20046;-74
2023/07/19 02:18:12;;;;;;;11.07;6.60;;;;;;;17.13;100.00;101245.19;5048377;28;20037;-74
2023/07/19 02:20:44;;;;;;;9.27;6.22;;;;;;;17.14;100.00;101247.75;5048654;28;20041;-74
2023/07/19 02:23:19;;;;;;;7.57;5.43;;;;;;;17.15;100.00;101241.38;5052504;28;20041;-73
2023/07/19 02:25:48;;;;;;;13.73;6.45;;;;;;;17.19;100.00;101244.66;5032729;28;20040;-72
2023/07/19 02:28:17;;;;;;;7.15;6.03;;;;;;;17.24;100.00;101247.81;5040429;28;20048;-73
2023/07/19 02:30:45;;;;;;;11.80;5.78;;;;;;;17.33;100.00;101239.81;5048194;28;20057;-73
2023/07/19 02:33:16;;;;;;;9.75;6.03;;;;;;;17.27;100.00;101239.47;5080413;28;20637;-73
2023/07/19 02:35:51;;;;;;;7.63;5.97;;;;;;;17.29;100.00;101229.41;5044583;28;20052;-73
2023/07/19 02:38:17;;;;;;;6.38;5.65;;;;;;;17.30;100.00;101236.50;5046200;28;20044;-73
2023/07/19 02:40:46;;;;;;;9.93;6.50;;;;;;;17.38;100.00;101239.41;5048178;28;20787;-72
2023/07/19 02:43:12;;;;;;;8.65;5.28;;;;;;;17.39;100.00;101240.28;5047515;28;20518;-73
2023/07/19 02:45:38;;;;;;;12.07;6.40;;;;;;;17.33;100.00;101238.97;5048891;28;20037;-73
2023/07/19 02:48:04;;;;;;;11.63;6.60;;;;;;;17.24;100.00;101235.19;5040452;28;20037;-73
2023/07/19 02:50:30;;;;;;;9.77;7.00;;;;;;;17.29;100.00;101229.41;5054612;28;20930;-73
2023/07/19 02:52:56;;;;;;;9.77;6.32;;;;;;;17.25;100.00;101228.81;5050871;28;20088;-73
2023/07/19 02:55:22;;;;;;;12.05;6.85;;;;;;;17.25;100.00;101227.97;5046390;28;20032;-73
2023/07/19 02:57:48;;;;;;;12.18;7.00;;;;;;;17.27;100.00;101229.56;5052485;28;20361;-73
2023/07/19 03:00:14;;;;;;;7.38;5.95;;;;;;;17.20;100.00;101243.66;5057225;28;20072;-73
2023/07/19 03:02:46;;;;;;;12.20;5.70;;;;;;;17.14;100.00;101246.91;5051021;28;20033;-74
2023/07/19 03:05:19;;;;;;;10.98;5.95;;;;;;;17.19;100.00;101241.97;5051169;28;20045;-73
2023/07/19 03:07:45;;;;;;;8.60;6.03;;;;;;;17.21;100.00;101240.84;5078354;28;20037;-73
2023/07/19 03:10:13;;;;;;;10.73;6.45;;;;;;;17.20;100.00;101241.81;5048955;28;20037;-74
2023/07/19 03:12:46;;;;;;;9.45;6.65;;;;;;;17.20;100.00;101246.38;5032533;28;20073;-74
2023/07/19 03:15:12;;;;;;;10.73;6.03;;;;;;;17.13;100.00;101248.75;5025738;28;20053;-73
2023/07/19 03:17:39;;;;;;;14.15;6.63;;;;;;;17.18;100.00;101251.91;5045629;28;20312;-73
2023/07/19 03:20:10;;;;;;;9.48;6.80;;;;;;;17.16;100.00;101253.84;5050322;28;20044;-73
2023/07/19 03:22:38;;;;;;;7.88;6.40;;;;;;;17.13;100.00;101254.13;5050745;28;20056;-73
2023/07/19 03:25:05;;;;;;;11.98;7.00;;;;;;;17.15;100.00;101264.78;5049824;28;20061;-74
2023/07/19 03:27:31;;;;;;;9.23;5.82;;;;;;;17.09;100.00;101261.59;5046253;28;20032;-73
2023/07/19 03:29:57;;;;;;;11.95;6.60;;;;;;;16.99;100.00;101255.28;5083816;27;20040;-73
2023/07/19 03:32:22;;;;;;;9.35;6.22;;;;;;;17.01;100.00;101244.38;5051773;28;20033;-73
2023/07/19 03:34:49;;;;;;;14.00;5.78;;;;;;;16.98;100.00;101250.88;5084005;27;20040;-73
2023/07/19 03:37:15;;;;;;;12.38;6.85;;;;;;;16.97;100.00;101234.84;5049350;28;20267;-72
2023/07/19 03:39:44;;;;;;;12.90;6.13;;;;;;;17.03;100.00;101235.19;5034769;28;20044;-73
2023/07/19 03:42:16;;;;;;;9.32;5.97;;;;;;;17.04;100.00;101241.44;5066503;28;20057;-73
2023/07/19 03:44:46;;;;;;;10.75;5.35;;;;;;;17.08;100.00;101243.72;5050629;28;20037;-74
2023/07/19 03:47:15;;;;;;;10.27;5.95;;;;;;;17.02;100.00;101248.78;5050057;28;20030;-73
2023/07/19 03:49:43;;;;;;;10.70;6.53;;;;;;;17.05;100.00;101245.81;5048804;28;20037;-71
2023/07/19 03:52:09;;;;;;;11.40;6.40;;;;;;;17.08;100.00;101248.28;5053294;28;20861;-74
2023/07/19 03:54:38;;;;;;;11.13;6.43;;;;;;;17.12;100.00;101249.72;5058776;28;20167;-75
2023/07/19 03:57:04;;;;;;;10.50;5.63;;;;;;;17.12;100.00;101252.41;5083754;28;20492;-74
2023/07/19 03:59:32;;;;;;;12.63;6.03;;;;;;;17.09;100.00;101244.59;5028557;28;20584;-74
2023/07/19 04:01:58;;;;;;;9.88;5.70;;;;;;;17.15;100.00;101243.22;5049136;28;20041;-75
2023/07/19 04:04:24;;;;;;;11.48;6.15;;;;;;;17.21;100.00;101240.84;5055491;28;20044;-74
2023/07/19 04:06:50;;;;;;;9.43;5.35;;;;;;;17.37;100.00;101253.00;5052012;28;20029;-74
2023/07/19 04:09:18;;;;;;;9.45;5.30;;;;;;;17.52;100.00;101239.09;5049563;28;20893;-74
2023/07/19 04:11:44;;;;;;;8.23;5.45;;;;;;;17.74;100.00;101250.75;5044276;28;20148;-75
2023/07/19 04:14:16;;;;;;;8.20;5.88;;;;;;;17.70;100.00;101251.97;5052194;28;21066;-74
2023/07/19 04:16:45;;;;;;;9.45;5.65;;;;;;;17.63;100.00;101243.56;5051126;28;20029;-75
2023/07/19 04:19:17;;;;;;;9.52;5.40;;;;;;;18.26;100.00;101244.28;5063006;28;20029;-75
2023/07/19 04:21:49;;;;;;;7.15;5.38;;;;;;;19.34;100.00;101241.59;5049594;28;20041;-75
2023/07/19 04:24:16;;;;;;;7.53;5.88;;;;;;;19.98;100.00;101236.47;5053390;28;20045;-74
2023/07/19 04:26:44;;;;;;;9.02;5.53;;;;;;;20.92;100.00;101227.09;5049862;28;20847;-75
2023/07/19 04:29:20;;;;;;;8.48;5.35;;;;;;;21.73;92.97;101228.75;5059570;28;20033;-75
2023/07/19 04:31:47;;;;;;;8.30;5.35;;;;;;;21.97;88.31;101219.91;5049382;28;20032;-75
2023/07/19 04:34:20;;;;;;;5.82;4.88;;;;;;;21.16;89.21;101222.91;5050292;28;20034;-74
2023/07/19 04:36:45;;;;;;;7.22;4.65;;;;;;;20.29;95.26;101228.94;5064622;28;20052;-75
2023/07/19 04:39:21;;;;;;;8.02;4.80;;;;;;;19.78;100.00;101233.84;5050281;28;20255;-74
2023/07/19 04:41:47;;;;;;;7.78;5.18;;;;;;;19.42;100.00;101232.75;5050311;28;20038;-75
2023/07/19 04:44:17;;;;;;;8.23;5.45;;;;;;;19.34;100.00;101233.47;5016010;28;20126;-74
2023/07/19 04:46:49;;;;;;;15.63;6.28;;;;;;;19.33;100.00;101234.47;5042428;28;21336;-75
2023/07/19 04:49:18;;;;;;;10.52;5.75;;;;;;;19.31;100.00;101241.03;5043174;28;20037;-74
2023/07/19 04:51:44;;;;;;;8.95;5.38;;;;;;;19.20;100.00;101249.28;5048410;28;20041;-74
2023/07/19 04:54:13;;;;;;;9.85;5.70;;;;;;;18.99;100.00;101246.75;5083708;27;20612;-74
2023/07/19 04:56:43;;;;;;;11.20;6.32;;;;;;;18.95;100.00;101248.00;5049704;28;20071;-75
2023/07/19 04:59:10;;;;;;;13.30;6.22;;;;;;;18.83;100.00;101248.16;5062208;28;20152;-73
2023/07/19 05:01:38;;;;;;;8.13;6.45;;;;;;;18.82;100.00;101246.41;5057961;28;20053;-75
2023/07/19 05:04:04;;;;;;;13.48;6.60;;;;;;;18.79;100.00;101254.81;5050169;28;20045;-74
2023/07/19 05:06:31;;;;;;;12.73;7.05;;;;;;;18.79;100.00;101245.88;5033850;28;20041;-75
2023/07/19 05:08:57;;;;;;;13.73;7.30;;;;;;;18.84;100.00;101251.72;5080594;28;20124;-74
2023/07/19 05:11:25;;;;;;;12.13;7.95;;;;;;;18.93;100.00;101250.88;5059276;28;20059;-73
2023/07/19 05:13:51;;;;;;;12.55;7.20;;;;;;;18.96;100.00;101255.13;5050675;28;20067;-73
2023/07/19 05:16:17;;;;;;;15.93;8.93;;;;;;;18.89;100.00;101263.78;5060151;28;20037;-75
2023/07/19 05:18:45;;;;;;;15.02;7.82;;;;;;;19.07;100.00;101265.78;5048168;28;20565;-75
2023/07/19 05:21:13;;;;;;;12.85;7.85;;;;;;;19.19;100.00;101266.53;5049830;28;20031;-74
2023/07/19 05:23:46;;;;;;;15.02;7.57;;;;;;;19.52;100.00;101252.50;5065386;28;20086;-75
2023/07/19 05:26:21;;;;;;;9.63;7.47;;;;;;;19.89;100.00;101255.31;5042444;28;20071;-74
2023/07/19 05:28:47;;;;;;;12.60;7.65;;;;;;;20.06;100.00;101242.84;5048342;28;20139;-74
2023/07/19 05:31:13;;;;;;;18.25;9.98;;;;;;;20.39;100.00;101241.41;5043850;28;20922;-74
2023/07/19 05:33:40;;;;;;;14.52;8.45;;;;;;;20.40;100.00;101239.56;5065194;28;20033;-74
2023/07/19 05:36:15;;;;;;;14.95;7.93;;;;;;;20.37;100.00;101250.66;5049195;28;20099;-74
2023/07/19 05:38:46;;;;;;;13.88;8.10;;;;;;;20.20;100.00;101252.34;5049484;28;20043;-73
2023/07/19 05:41:17;;;;;;;18.27;8.35;;;;;;;20.07;100.00;101251.81;5049261;28;20041;-75
2023/07/19 05:43:44;;;;;;;12.52;8.02;;;;;;;20.06;100.00;101252.81;5046857;28;20108;-75
2023/07/19 05:46:16;;;;;;;12.55;8.02;;;;;;;20.09;100.00;101261.50;5050301;28;20204;-74
2023/07/19 05:48:45;;;;;;;;;;;;;;;20.50;100.00;101253.06;5044811;28;20040;-75
2023/07/19 05:51:13;;;;;;;18.88;9.10;;;;;;;21.47;100.00;101250.47;5050014;28;19933;-75
2023/07/19 05:53:44;;;;;;;13.63;8.13;;;;;;;22.40;94.57;101245.25;5054573;28;20064;-75
2023/07/19 05:56:17;;;;;;;11.75;8.25;;;;;;;22.73;85.89;101251.63;5048062;28;20051;-75
2023/07/19 05:58:46;;;;;;;7.38;6.57;;;;;;;23.02;82.22;101250.34;5040536;28;20041;-75
2023/07/19 06:01:18;;;;;;;11.30;7.38;;;;;;;23.20;80.10;101251.06;5048676;28;20130;-75
2023/07/19 06:03:46;;;;;;;;;;;;;;;22.82;81.48;101236.19;5049195;28;20025;-75
2023/07/19 06:06:18;;;;;;;15.95;7.63;;;;;;;22.60;84.54;101240.41;5047721;28;19920;-75
2023/07/19 06:08:46;;;;;;;16.13;8.23;;;;;;;21.92;91.36;101250.25;5045110;28;20112;-74
2023/07/19 06:11:17;;;;;;;12.93;8.02;;;;;;;21.13;97.47;101251.16;5045872;28;20495;-74
2023/07/19 06:13:46;;;;;;;14.40;8.07;;;;;;;20.62;100.00;101260.81;5047793;28;20165;-74
2023/07/19 06:16:15;;;;;;;16.45;8.25;;;;;;;20.46;100.00;101257.06;5047472;28;20038;-74
2023/07/19 06:18:47;;;;;;;12.85;8.50;;;;;;;20.81;100.00;101251.72;5044965;28;20106;-74
2023/07/19 06:21:18;;;;;;;12.90;8.50;;;;;;;21.51;100.00;101251.00;5042695;28;20099;-74
2023/07/19 06:23:51;;;;;;;14.70;8.15;;;;;;;21.68;100.00;101248.22;5044636;28;20038;-75
2023/07/19 06:26:19;;;;;;;12.85;8.13;;;;;;;21.63;100.00;101245.16;5045098;28;20064;-74
2023/07/19 06:28:48;;;;;;;11.43;8.07;;;;;;;22.13;97.11;101235.44;5042629;28;20037;-75
2023/07/19 06:31:16;;;;;;;14.07;7.95;;;;;;;22.44;92.42;101231.19;5052136;28;20041;-74
2023/07/19 06:33:45;;;;;;;11.43;8.00;;;;;;;22.71;90.28;101234.63;5052800;28;20037;-76
2023/07/19 06:36:16;;;;;;;17.02;8.65;;;;;;;22.41;86.28;101228.78;5051416;28;20041;-75
2023/07/19 06:38:48;;;;;;;14.43;8.70;;;;;;;22.44;86.26;101230.31;5055120;28;20041;-75
2023/07/19 06:41:18;;;;;;;17.85;8.65;;;;;;;22.44;88.09;101233.91;5052202;28;20060;-75
2023/07/19 06:43:46;;;;;;;18.35;8.15;;;;;;;22.79;84.50;101233.78;5051998;28;20032;-74
2023/07/19 06:46:15;;;;;;;12.68;7.70;;;;;;;23.13;84.88;101230.97;5052365;28;20044;-76
2023/07/19 06:48:46;;;;;;;15.82;7.43;;;;;;;23.21;81.52;101226.38;5052055;28;20080;-75
2023/07/19 06:51:20;;;;;;;14.82;7.60;;;;;;;23.57;79.77;101226.00;5066578;28;20068;-75
2023/07/19 06:53:48;;;;;;;12.07;7.35;;;;;;;23.28;79.61;101234.72;5064475;28;20094;-75
2023/07/19 06:56:20;;;;;;;10.02;7.00;;;;;;;23.62;78.79;101239.97;5055931;28;20033;-75
2023/07/19 06:58:46;;;;;;;;;;;;;;;23.91;76.61;101238.56;5053988;28;20028;-75
2023/07/19 07:01:17;;;;;;;11.10;6.82;;;;;;;24.01;75.05;101231.91;5049806;28;19921;-76
2023/07/19 07:03:51;;;;;;;14.10;6.88;;;;;;;24.12;73.39;101240.72;5049440;28;20029;-76
2023/07/19 07:06:16;;;;;;;10.43;6.72;;;;;;;24.11;72.21;101234.41;5047631;28;20067;-75
2023/07/19 07:08:47;;;;;;;12.82;6.40;;;;;;;24.31;71.37;101232.13;5044866;28;20110;-75
2023/07/19 07:11:20;;;;;;;9.93;5.88;;;;;;;24.52;71.35;101221.47;5052447;28;20041;-76
2023/07/19 07:13:46;;;;;;;11.88;5.50;;;;;;;25.17;69.52;101238.47;5052881;28;20047;-75
2023/07/19 07:16:18;;;;;;;15.40;6.28;;;;;;;25.10;65.56;101235.59;5050296;28;20033;-75
2023/07/19 07:18:52;;;;;;;11.98;6.32;;;;;;;25.11;64.28;101233.75;5052030;28;20036;-75
2023/07/19 07:21:17;;;;;;;10.65;5.50;;;;;;;25.58;65.92;101237.06;5051832;28;20037;-75
2023/07/19 07:23:46;;;;;;;12.02;5.32;;;;;;;25.48;62.37;101232.88;5051290;28;20041;-74
2023/07/19 07:26:17;;;;;;;11.30;5.32;;;;;;;25.48;63.65;101228.28;5045592;28;20080;-74
2023/07/19 07:28:45;;;;;;;10.32;5.93;;;;;;;24.98;64.20;101237.03;5050118;28;20068;-75
2023/07/19 07:31:20;;;;;;;10.65;5.68;;;;;;;24.68;65.16;101238.78;5047080;28;20033;-75
2023/07/19 07:33:48;;;;;;;13.15;5.50;;;;;;;24.76;66.20;101236.84;5052112;28;20037;-75
2023/07/19 07:36:18;;;;;;;9.77;5.72;;;;;;;24.63;65.17;101233.00;5050582;28;20037;-75
2023/07/19 07:38:48;;;;;;;12.80;5.28;;;;;;;24.59;65.12;101232.50;5049250;28;20045;-75
2023/07/19 07:41:22;;;;;;;14.65;5.93;;;;;;;24.58;64.47;101229.97;5040714;28;20059;-75
2023/07/19 07:43:51;;;;;;;16.80;5.32;;;;;;;24.32;63.90;101230.25;5051076;28;20029;-75
2023/07/19 07:46:19;;;;;;;9.88;4.35;;;;;;;24.43;63.63;101230.72;5045306;28;20025;-75
2023/07/19 07:48:45;;;;;;;13.15;5.57;;;;;;;25.06;63.15;101228.78;5081170;27;20037;-75
2023/07/19 07:51:16;;;;;;;19.35;5.78;;;;;;;25.36;63.17;101228.91;5050100;28;20037;-76
2023/07/19 07:53:47;;;;;;;16.55;5.88;;;;;;;25.63;63.16;101222.00;5048690;28;20053;-74
2023/07/19 07:56:16;;;;;;;9.75;4.40;;;;;;;25.50;61.03;101230.81;5044120;28;20055;-75
2023/07/19 07:58:48;;;;;;;9.23;4.93;;;;;;;25.39;60.77;101220.34;5049338;28;20057;-76
2023/07/19 08:01:17;;;;;;;12.90;5.07;;;;;;;25.35;59.92;101216.28;5050390;28;20040;-76
2023/07/19 08:03:45;;;;;;;13.65;5.07;;;;;;;25.46;60.87;101222.16;5051087;28;20102;-75
2023/07/19 08:06:19;;;;;;;7.97;4.70;;;;;;;25.64;59.66;101210.03;5051207;28;20025;-76
2023/07/19 08:08:47;;;;;;;11.65;4.05;;;;;;;25.51;59.83;101200.59;5045737;28;20059;-75
2023/07/19 08:11:17;;;;;;;14.60;5.00;;;;;;;25.66;60.35;101214.28;5048032;28;20033;-75
2023/07/19 08:13:45;;;;;;;12.75;5.85;;;;;;;25.92;60.00;101216.56;5047656;28;20072;-75
2023/07/19 08:16:19;;;;;;;10.85;5.53;;;;;;;26.19;60.74;101208.72;5043241;28;20134;-75
2023/07/19 08:18:48;;;;;;;11.93;6.03;;;;;;;26.40;57.30;101203.31;5082145;28;20413;-75
2023/07/19 08:21:17;;;;;;;9.50;4.93;;;;;;;26.74;56.65;101208.16;5044743;28;20140;-75
2023/07/19 08:23:46;;;;;;;12.07;5.45;;;;;;;26.74;56.11;101199.09;5054677;28;20033;-76
2023/07/19 08:26:20;;;;;;;11.07;5.10;;;;;;;27.22;55.32;101207.59;5043046;28;20420;-76
2023/07/19 08:28:46;;;;;;;10.45;4.88;;;;;;;27.15;54.67;101193.81;5048997;28;20036;-76
2023/07/19 08:31:18;;;;;;;10.57;5.43;;;;;;;27.55;56.03;101194.97;5081300;27;20048;-76
2023/07/19 08:33:47;;;;;;;11.93;5.57;;;;;;;27.06;55.29;101189.50;5050787;28;21119;-76
2023/07/19 08:36:18;;;;;;;11.70;5.22;;;;;;;27.03;55.11;101200.84;5082239;27;20044;-74
2023/07/19 08:38:47;;;;;;;8.18;4.07;;;;;;;27.01;56.26;101203.81;5043825;28;20525;-75
2023/07/19 08:41:22;;;;;;;10.88;5.30;;;;;;;26.88;57.11;101200.94;5051411;28;20087;-75
2023/07/19 08:43:48;;;;;;;11.93;5.07;;;;;;;27.13;58.43;101184.97;5049910;28;20036;-76
2023/07/19 08:46:17;;;;;;;9.98;4.22;;;;;;;27.02;56.57;101201.91;5052171;28;20033;-75
2023/07/19 08:48:47;;;;;;;7.88;4.65;;;;;;;26.81;56.06;101197.28;5050747;28;20051;-76
2023/07/19 08:51:17;;;;;;;9.30;4.40;;;;;;;25.96;55.40;101196.03;5050266;28;20037;-76
2023/07/19 08:53:45;;;;;;;12.60;4.43;;;;;;;25.79;56.91;101198.09;5044298;28;20143;-76
2023/07/19 08:56:15;;;;;;;8.70;3.90;;;;;;;26.31;56.97;101194.38;5040712;28;20049;-75
2023/07/19 08:58:50;;;;;;;10.13;4.35;;;;;;;26.63;55.92;101197.72;5052363;28;20037;-76
2023/07/19 09:01:16;;;;;;;13.02;5.13;;;;;;;26.70;57.56;101198.63;5051095;28;20134;-74
2023/07/19 09:03:47;;;;;;;9.95;4.78;;;;;;;26.44;56.11;101198.34;5044385;28;20107;-76
2023/07/19 09:06:33;;;;;;;6.97;4.43;;;;;;;26.66;55.78;101197.34;5052122;28;20033;-75
2023/07/19 09:09:03;;;;;;;6.55;4.00;;;;;;;26.57;55.67;101198.50;5049509;28;20053;-75
2023/07/19 09:11:28;;;;;;;14.43;4.97;;;;;;;26.03;55.95;101205.16;5082743;28;21000;-75
2023/07/19 09:13:57;;;;;;;14.10;5.25;;;;;;;25.93;56.93;101203.75;5045290;28;20041;-75
2023/07/19 09:16:32;;;;;;;8.25;3.88;;;;;;;25.97;56.97;101200.47;5059780;28;20033;-75
2023/07/19 09:19:00;;;;;;;7.80;3.85;;;;;;;26.20;57.07;101199.47;5047654;28;20028;-74
2023/07/19 09:21:52;;;;;;;6.88;4.18;;;;;;;26.10;55.38;101197.03;5045628;28;20132;-74
2023/07/19 09:24:17;;;;;;;9.57;3.95;;;;;;;26.71;54.20;101194.88;5047102;28;20611;-74
2023/07/19 09:26:47;;;;;;;8.32;3.83;;;;;;;27.17;55.06;101188.16;5051083;28;20072;-75
2023/07/19 09:29:19;;;;;;;7.43;4.22;;;;;;;28.01;54.54;101190.84;5045160;28;20037;-75
2023/07/19 09:31:55;;;;;;;12.55;4.70;;;;;;;27.46;52.16;101195.34;5045384;28;20045;-76
2023/07/19 09:34:33;;;;;;;7.63;4.47;;;;;;;27.23;52.00;101196.44;5061895;28;20041;-75
2023/07/19 09:37:02;;;;;;;12.43;4.57;;;;;;;26.59;53.64;101197.25;5050048;28;20045;-75
2023/07/19 09:39:34;;;;;;;10.77;4.63;;;;;;;26.25;53.98;101200.59;5043481;28;20043;-75
2023/07/19 09:44:59;;;;;;;10.95;4.05;;;;;;;25.60;56.39;101195.03;5049131;28;19917;-76
2023/07/19 09:47:31;;;;;;;12.93;4.50;;;;;;;25.38;56.46;101202.25;5043217;28;20063;-75
2023/07/19 09:49:57;;;;;;;6.28;4.05;;;;;;;25.38;56.52;101197.66;5050889;28;20647;-75
2023/07/19 09:52:25;;;;;;;14.63;4.75;;;;;;;25.51;57.28;101197.03;5033005;28;20079;-76
2023/07/19 09:54:52;;;;;;;12.15;4.15;;;;;;;25.26;57.59;101194.53;5048491;28;20072;-75
2023/07/19 09:57:45;;;;;;;8.30;4.07;;;;;;;25.02;58.44;101195.56;5059931;28;20140;-75
2023/07/19 10:00:17;;;;;;;9.77;3.67;;;;;;;25.21;56.35;101194.25;5061188;28;20099;-75
2023/07/19 10:02:45;;;;;;;7.28;3.80;;;;;;;26.18;55.13;101191.47;5050304;28;20036;-75
2023/07/19 10:05:34;;;;;;;8.77;4.10;;;;;;;26.69;54.54;101191.47;5056801;28;20494;-74
2023/07/19 10:08:04;;;;;;;5.90;4.07;;;;;;;26.98;53.75;101195.13;5051984;28;20938;-73
2023/07/19 10:10:57;;;;;;;7.72;3.92;;;;;;;27.36;54.79;101191.06;5048907;28;20036;-73
2023/07/19 10:13:28;;;;;;;8.57;3.55;;;;;;;26.84;52.88;101191.41;5076015;27;20044;-74
2023/07/19 10:15:54;;;;;;;;;;;;;;;27.12;55.18;101198.88;5047739;28;20037;-73
2023/07/19 10:18:20;;;;;;;5.30;2.63;;;;;;;27.24;54.34;101189.06;5049280;28;20429;-74
2023/07/19 10:21:02;;;;;;;6.13;2.85;;;;;;;26.77;52.84;101183.13;5049050;28;20040;-74
2023/07/19 10:23:30;;;;;;;7.32;3.35;;;;;;;26.41;53.43;101191.34;5053435;28;20084;-73
2023/07/19 10:26:08;;;;;;;11.02;4.18;;;;;;;26.16;54.06;101184.53;5050471;28;20198;-74
2023/07/19 10:28:33;;;;;;;5.30;3.13;;;;;;;26.03;53.56;101185.19;5046587;28;20052;-75
2023/07/19 10:31:01;;;;;;;6.95;3.30;;;;;;;26.14;53.77;101184.69;5084760;28;20124;-75
2023/07/19 10:33:30;;;;;;;10.57;3.85;;;;;;;26.10;55.71;101183.38;5040657;28;20055;-75
2023/07/19 10:36:02;;;;;;;6.25;3.20;;;;;;;26.47;55.19;101184.28;5045977;28;20294;-75
2023/07/19 10:38:28;;;;;;;7.47;3.42;;;;;;;27.51;56.65;101181.88;5050308;28;20255;-74
2023/07/19 10:40:54;;;;;;;7.38;3.90;;;;;;;27.38;54.46;101190.03;5053898;28;20033;-75
2023/07/19 10:43:20;;;;;;;7.20;3.97;;;;;;;27.34;52.98;101182.19;5062431;28;20120;-75
2023/07/19 10:45:48;;;;;;;9.52;3.90;;;;;;;27.12;52.18;101176.97;5046531;28;20105;-74
2023/07/19 10:48:17;;;;;;;8.07;4.05;;;;;;;27.41;52.43;101181.38;5050693;28;20037;-74
2023/07/19 10:50:46;;;;;;;10.25;3.40;;;;;;;27.76;52.50;101174.06;5043359;28;20028;-75
2023/07/19 10:53:16;;;;;;;11.35;4.38;;;;;;;28.17;50.61;101156.78;5052799;28;20057;-74
2023/07/19 10:55:47;;;;;;;5.43;3.65;;;;;;;28.39;51.40;101174.81;5066075;28;20085;-75
2023/07/19 10:58:16;;;;;;;7.68;3.67;;;;;;;28.47;51.66;101168.31;5051248;28;20036;-74
2023/07/19 11:00:48;;;;;;;8.27;2.90;;;;;;;28.94;47.37;101164.59;5046153;28;20033;-74
2023/07/19 11:03:22;;;;;;;7.80;2.80;;;;;;;28.27;49.20;101169.06;5046203;28;20037;-74
2023/07/19 11:05:49;;;;;;;3.10;2.60;;;;;;;27.54;48.39;101176.84;5048583;28;20079;-74
2023/07/19 11:08:25;;;;;;;7.57;3.00;;;;;;;27.95;49.51;101175.22;5050379;28;20039;-75
2023/07/19 11:10:54;;;;;;;7.72;3.30;;;;;;;27.72;51.99;101178.28;5033525;28;20036;-74
2023/07/19 11:13:22;;;;;;;7.40;3.60;;;;;;;26.98;55.80;101181.44;5045750;28;20730;-75
2023/07/19 11:15:55;;;;;;;8.27;4.18;;;;;;;26.37;55.86;101187.28;5050383;28;20041;-74
2023/07/19 11:18:30;;;;;;;6.75;4.10;;;;;;;25.86;58.01;101190.00;5049058;28;20044;-74
2023/07/19 11:21:09;;;;;;;6.65;4.07;;;;;;;25.75;58.17;101183.09;5054331;28;20041;-74
2023/07/19 11:23:45;;;;;;;7.40;3.90;;;;;;;25.55;60.23;101187.41;5036632;28;20267;-75
2023/07/19 11:26:15;;;;;;;7.65;4.05;;;;;;;25.43;58.95;101176.09;5028008;28;20105;-75
2023/07/19 11:28:50;;;;;;;6.10;4.07;;;;;;;25.20;60.03;101183.47;5050102;28;20045;-75
2023/07/19 11:31:34;;;;;;;5.60;3.47;;;;;;;25.19;59.47;101181.78;5046153;28;20036;-74
2023/07/19 11:34:08;;;;;;;5.25;3.70;;;;;;;25.85;59.08;101177.34;5041522;28;20431;-74